首页
METAR-TAF:

METAR-TAF

机场 :

Tri-Cities Airport

帕斯科, 华盛顿, 美国

纬度: 46-16-11N, 经度: 119-07-00W, 海拔: 124米

当前天气观测

该预报发布于30分钟前的00:23 UTC
风速4节,风向
温度 1°C
湿度 86%
气压 1027 hPa
能見度: 11.3公里
阴天层高于700英尺

METAR: KPSC 110023Z 35004KT 7SM OVC007 01/M01 A3033 RMK AO2 T00061011

时间: 16:53 (00:53 UTC)

预报

该预报发布于34分钟前的00:19 UTC
预报有效从11日的 00点(UTC)到 11日的 24点(UTC)
风速4节,风向多变
能見度: 9.7公里
阴天层高于800英尺
轻雾
从 11日的 1200点(UTC)
风速12节,风向南转南东
能見度: 10公里
阴天层高于10000英尺
从 11日的 1500点(UTC)
风速14节,风向南转南东
能見度: 9.7公里
阴天层高于4000英尺
小雨
从 11日的 2100点(UTC)
风速18节,风向南转西南,有时为24节阵风
能見度: 10公里
散云层高于4000英尺
多云层高于8000英尺
附近有阵雨

TAF: KPSC 110019Z 1100/1124 VRB04KT 6SM BR OVC008 FM111200 16012KT P6SM OVC100 FM111500 16014KT 6SM -RA OVC040 FM112100 20018G24KT P6SM VCSH SCT040 BKN080

超过4000个机场的气象观测和天气预报(METAR&TAF报告)。

可查询的气象台以黄色和红色小点在地图上表示。

将鼠标移到小点上方,可查看气象台名称。

然后点击查看天气观测和预报。

如需切换地图:点击带黑十字的绿色按钮放大地图;点击带横线的绿色按钮缩小地图;或者点击绿色箭头查看邻近地区的地图。


METAR-TAF: